LEGR/GRX METAR and TAF weather

Enter ICAO airport designator
Station Type Date Time Source
LEGR METAR 2020/08/15 15:30 UTC NOAA

LEGR 151530Z 27013KT 250V310 9999 FEW050 32/01 Q1015


Station Type Date Time Source
LEGR Decoded METAR 2020/08/15 15:30 UTC NOAA

Granada / Aeropuerto, Spain (LEGR) 37-11N 003-47W 570M
Aug 15, 2020 - 11:30 AM EDT / 2020.08.15 1530 UTC
Wind: from the W (270 degrees) at 15 MPH (13 KT) (direction variable):0
Visibility: greater than 7 mile(s):0
Sky conditions: mostly clear
Temperature: 89 F (32 C)
Dew Point: 33 F (1 C)
Relative Humidity: 13%
Pressure (altimeter): 29.97 in. Hg (1015 hPa)
ob: LEGR 151530Z 27013KT 250V310 9999 FEW050 32/01 Q1015
cycle: 15

Station Type Date Time Source
LEGR TAF 2020/08/15 15:29 UTC NOAA

TAF LEGR 151400Z 1515/1615 28012KT CAVOK TX34/1516Z TN15/1606Z
BECMG 1519/1522 22004KT
BECMG 1611/1614 28010KT

Example: see airport list